Time;durP1;ratioP1;P1;durP2;ratioP2;P2;SDS_P1;SDS_P2;PMS_P1;PMS_P2;Temp;Humidity;BMP_temperature;BMP_pressure;BME280_temperature;BME280_humidity;BME280_pressure;Samples;Min_cycle;Max_cycle;Signal;HPM_P1;HPM_P2
2021/03/01 00:02:03;;;;;;;231.65;31.88;;;;;;;-141.50;100.00;63355.56;4992083;28;20137;-80
2021/03/01 00:04:29;;;;;;;276.63;31.38;;;;;;;-141.50;100.00;63355.56;4993944;28;20081;-79
2021/03/01 00:06:55;;;;;;;184.77;29.15;;;;;;;-141.50;100.00;63355.56;4993594;28;20046;-79
2021/03/01 00:09:22;;;;;;;241.32;32.13;;;;;;;-141.50;100.00;63355.56;4992889;28;20049;-79
2021/03/01 00:11:50;;;;;;;98.47;30.73;;;;;;;-141.50;100.00;63355.56;4995144;28;20069;-78
2021/03/01 00:14:16;;;;;;;122.13;31.58;;;;;;;-141.50;100.00;63355.56;4992963;28;20046;-79
2021/03/01 00:16:42;;;;;;;125.35;29.17;;;;;;;-141.50;100.00;63355.56;4993378;28;20046;-79
2021/03/01 00:19:09;;;;;;;140.70;28.27;;;;;;;-141.50;100.00;63355.56;4992429;28;20051;-79
2021/03/01 00:21:37;;;;;;;138.93;28.48;;;;;;;-141.50;100.00;63355.56;4991970;28;20085;-79
2021/03/01 00:24:04;;;;;;;125.68;29.08;;;;;;;-141.50;100.00;63355.56;4981814;28;20043;-79
2021/03/01 00:26:33;;;;;;;116.55;28.40;;;;;;;-141.50;100.00;63355.56;4994213;28;20272;-78
2021/03/01 00:29:00;;;;;;;108.72;28.10;;;;;;;-141.50;100.00;63355.56;4997136;28;20056;-79
2021/03/01 00:31:26;;;;;;;113.43;27.58;;;;;;;-141.50;100.00;63355.56;4960241;28;20047;-78
2021/03/01 00:33:52;;;;;;;112.93;27.88;;;;;;;-141.50;100.00;63355.56;4975854;28;20038;-78
2021/03/01 00:36:19;;;;;;;127.57;27.35;;;;;;;-141.50;100.00;63355.56;4992244;28;20522;-78
2021/03/01 00:38:45;;;;;;;135.70;28.13;;;;;;;-141.50;100.00;63355.56;4974340;28;20468;-80
2021/03/01 00:41:11;;;;;;;103.88;26.05;;;;;;;-141.50;100.00;63355.56;4974770;28;20130;-79
2021/03/01 00:43:40;;;;;;;89.57;28.38;;;;;;;-141.50;100.00;63355.56;4976155;28;20126;-79
2021/03/01 00:46:06;;;;;;;107.93;27.92;;;;;;;-141.50;100.00;63355.56;4991214;28;20046;-78
2021/03/01 00:48:32;;;;;;;80.97;26.20;;;;;;;-141.50;100.00;63355.56;4993142;28;20046;-77
2021/03/01 00:50:59;;;;;;;96.10;26.13;;;;;;;-141.50;100.00;63355.56;4995755;28;20050;-78
2021/03/01 00:53:27;;;;;;;131.68;26.05;;;;;;;-141.50;100.00;63355.56;5000779;28;20035;-79
2021/03/01 00:55:55;;;;;;;73.15;25.85;;;;;;;-141.50;100.00;63355.56;5000257;28;20093;-78
2021/03/01 00:58:21;;;;;;;201.68;27.25;;;;;;;-141.50;100.00;63355.56;4994969;28;20043;-78
2021/03/01 01:00:50;;;;;;;121.80;26.98;;;;;;;-141.50;100.00;63355.56;4997573;28;20058;-78
2021/03/01 01:03:20;;;;;;;109.10;27.00;;;;;;;-141.50;100.00;63355.56;4997617;28;20040;-78
2021/03/01 01:05:47;;;;;;;74.60;27.08;;;;;;;-141.50;100.00;63355.56;4977874;28;20046;-77
2021/03/01 01:08:13;;;;;;;176.40;27.45;;;;;;;-141.50;100.00;63355.56;4978503;28;20509;-79
2021/03/01 01:10:41;;;;;;;94.05;27.10;;;;;;;-141.50;100.00;63355.56;4994829;28;20048;-78
2021/03/01 01:13:07;;;;;;;110.50;26.92;;;;;;;-141.50;100.00;63355.56;4994617;28;20053;-77
2021/03/01 01:15:34;;;;;;;89.95;27.25;;;;;;;-141.50;100.00;63355.56;4996038;28;20490;-78
2021/03/01 01:18:04;;;;;;;227.07;29.40;;;;;;;-141.50;100.00;63355.56;4977222;28;20057;-80
2021/03/01 01:20:32;;;;;;;138.85;28.98;;;;;;;-141.50;100.00;63355.56;4996717;28;20045;-79
2021/03/01 01:22:59;;;;;;;118.72;28.10;;;;;;;-141.50;100.00;63355.56;4963488;28;20050;-79
2021/03/01 01:25:25;;;;;;;105.97;28.92;;;;;;;-141.50;100.00;63355.56;4996243;28;20045;-79
2021/03/01 01:27:51;;;;;;;101.03;29.02;;;;;;;-141.50;100.00;63355.56;4996675;28;20042;-78
2021/03/01 01:30:21;;;;;;;98.32;28.00;;;;;;;-141.50;100.00;63355.56;4978992;28;20415;-79
2021/03/01 01:32:48;;;;;;;89.45;26.80;;;;;;;-141.50;100.00;63355.56;4978051;28;20057;-79
2021/03/01 01:35:16;;;;;;;145.60;27.77;;;;;;;-141.50;100.00;63355.56;4996187;28;20265;-78
2021/03/01 01:37:43;;;;;;;112.25;26.40;;;;;;;-141.50;100.00;63355.56;4978526;28;20049;-79
2021/03/01 01:40:13;;;;;;;95.30;27.95;;;;;;;-141.50;100.00;63355.56;4996274;28;20050;-79
2021/03/01 01:42:40;;;;;;;91.40;27.63;;;;;;;-141.50;100.00;63355.56;4996116;28;20046;-78
2021/03/01 01:45:11;;;;;;;77.80;26.92;;;;;;;-141.50;100.00;63355.56;4978006;28;20046;-78
2021/03/01 01:47:37;;;;;;;159.32;27.83;;;;;;;-141.50;100.00;63355.56;4994698;28;20043;-78
2021/03/01 01:50:06;;;;;;;131.45;26.77;;;;;;;-141.50;100.00;63355.56;4995021;28;20104;-78
2021/03/01 01:52:33;;;;;;;269.20;29.77;;;;;;;-141.50;100.00;63355.56;4992982;28;20803;-78
2021/03/01 01:54:59;;;;;;;153.82;28.13;;;;;;;-141.50;100.00;63355.56;4994446;28;20208;-78
2021/03/01 01:57:26;;;;;;;157.27;29.73;;;;;;;-141.50;100.00;63355.56;5007814;28;20049;-78
2021/03/01 01:59:53;;;;;;;92.03;30.55;;;;;;;-141.50;100.00;63355.56;5003544;28;20057;-78
2021/03/01 02:02:20;;;;;;;133.32;30.48;;;;;;;-141.50;100.00;63355.56;4993378;28;20062;-78
2021/03/01 02:04:55;;;;;;;93.53;30.23;;;;;;;-141.50;100.00;63355.56;4993851;28;20050;-80
2021/03/01 02:07:30;;;;;;;85.60;30.60;;;;;;;-141.50;100.00;63355.56;4977436;28;20069;-79
2021/03/01 02:10:14;;;;;;;74.43;29.02;;;;;;;-141.50;100.00;63355.56;4977268;28;20113;-79
2021/03/01 02:13:09;;;;;;;80.63;29.52;;;;;;;-141.50;100.00;63355.56;4993618;28;20046;-78
2021/03/01 02:15:59;;;;;;;83.90;28.63;;;;;;;-141.50;100.00;63355.56;4990788;28;20509;-78
2021/03/01 02:18:26;;;;;;;103.28;29.67;;;;;;;-141.50;100.00;63355.56;4993472;28;20035;-79
2021/03/01 02:20:53;;;;;;;73.47;26.77;;;;;;;-141.50;100.00;63355.56;4977076;28;20501;-78
2021/03/01 02:23:19;;;;;;;72.88;26.98;;;;;;;-141.50;100.00;63355.56;4993818;28;20054;-78
2021/03/01 02:26:04;;;;;;;93.95;27.30;;;;;;;-141.50;100.00;63355.56;4993656;28;20065;-78
2021/03/01 02:28:37;;;;;;;190.90;26.60;;;;;;;-141.50;100.00;63355.56;4993614;28;20497;-77
2021/03/01 02:31:07;;;;;;;212.40;27.23;;;;;;;-141.50;100.00;63355.56;4977080;28;20453;-78
2021/03/01 02:33:38;;;;;;;141.77;27.13;;;;;;;-141.50;100.00;63355.56;4993167;28;20498;-78
2021/03/01 02:36:14;;;;;;;127.22;26.38;;;;;;;-141.50;100.00;63355.56;4999526;28;20077;-77
2021/03/01 02:38:43;;;;;;;238.32;25.98;;;;;;;-141.50;100.00;63355.56;4992943;28;20050;-77
2021/03/01 02:41:11;;;;;;;315.92;25.83;;;;;;;-141.50;100.00;63355.56;4993423;28;20094;-79
2021/03/01 02:43:40;;;;;;;419.35;26.88;;;;;;;-141.50;100.00;63355.56;4993151;28;20049;-77
2021/03/01 02:46:09;;;;;;;242.07;24.05;;;;;;;-141.50;100.00;63355.56;4991458;28;20105;-78
2021/03/01 02:48:40;;;;;;;518.05;26.60;;;;;;;-141.50;100.00;63355.56;4975388;28;20046;-79
2021/03/01 02:51:10;;;;;;;305.15;25.45;;;;;;;-141.50;100.00;63355.56;4977618;28;20497;-77
2021/03/01 02:53:39;;;;;;;500.23;27.17;;;;;;;-141.50;100.00;63355.56;4993362;28;20050;-79
2021/03/01 02:56:06;;;;;;;315.05;26.48;;;;;;;-141.50;100.00;63355.56;4993779;28;20057;-77
2021/03/01 02:58:36;;;;;;;192.95;23.90;;;;;;;-141.50;100.00;63355.56;4992856;28;20101;-78
2021/03/01 03:01:03;;;;;;;86.18;22.88;;;;;;;-141.50;100.00;63355.56;4977210;28;20050;-79
2021/03/01 03:03:31;;;;;;;279.77;26.00;;;;;;;-141.50;100.00;63355.56;5000275;28;20458;-79
2021/03/01 03:05:58;;;;;;;265.73;24.05;;;;;;;-141.50;100.00;63355.56;4998675;28;20046;-78
2021/03/01 03:08:25;;;;;;;320.30;26.83;;;;;;;-141.50;100.00;63355.56;4980461;28;20050;-78
2021/03/01 03:10:52;;;;;;;324.40;25.58;;;;;;;-141.50;100.00;63355.56;4996917;28;20043;-77
2021/03/01 03:13:20;;;;;;;208.57;23.98;;;;;;;-141.50;100.00;63355.56;4993570;28;20048;-77
2021/03/01 03:15:52;;;;;;;143.15;22.60;;;;;;;-141.50;100.00;63355.56;4996594;28;20065;-78
2021/03/01 03:18:22;;;;;;;202.80;22.60;;;;;;;-141.50;100.00;63355.56;4996071;28;20042;-79
2021/03/01 03:20:48;;;;;;;179.38;23.20;;;;;;;-141.50;100.00;63355.56;4993432;28;20047;-79
2021/03/01 03:23:14;;;;;;;203.57;23.42;;;;;;;-141.50;100.00;63355.56;5002045;28;20045;-79
2021/03/01 03:25:40;;;;;;;104.28;22.08;;;;;;;-141.50;100.00;63355.56;5011916;28;20042;-78
2021/03/01 03:28:07;;;;;;;104.22;23.02;;;;;;;-141.50;100.00;63355.56;4994020;28;20050;-79
2021/03/01 03:30:34;;;;;;;118.15;22.48;;;;;;;-141.50;100.00;63355.56;4993683;28;20066;-78
2021/03/01 03:33:02;;;;;;;114.28;22.10;;;;;;;-141.50;100.00;63355.56;5010085;28;20055;-78
2021/03/01 03:35:29;;;;;;;97.07;22.00;;;;;;;-141.50;100.00;63355.56;5008395;28;20069;-78
2021/03/01 03:38:03;;;;;;;132.82;21.33;;;;;;;-141.50;100.00;63355.56;5007733;28;20052;-77
2021/03/01 03:40:30;;;;;;;151.70;20.15;;;;;;;-141.50;100.00;63355.56;4989063;28;20206;-78
2021/03/01 03:42:57;;;;;;;118.00;20.05;;;;;;;-141.50;100.00;63355.56;4998525;28;20489;-79
2021/03/01 03:45:25;;;;;;;91.65;20.08;;;;;;;-141.50;100.00;63355.56;4980487;28;20049;-78
2021/03/01 03:47:54;;;;;;;94.72;20.08;;;;;;;-141.50;100.00;63355.56;4992039;28;20050;-78
2021/03/01 03:50:26;;;;;;;96.03;20.05;;;;;;;-141.50;100.00;63355.56;4976804;28;20050;-77
2021/03/01 03:53:02;;;;;;;65.00;20.52;;;;;;;-141.50;100.00;63355.56;4977466;28;20057;-78
2021/03/01 03:55:33;;;;;;;61.25;19.30;;;;;;;-141.50;100.00;63355.56;4992606;28;20053;-78
2021/03/01 03:58:01;;;;;;;228.90;21.90;;;;;;;-141.50;100.00;63355.56;4959741;28;20050;-79
2021/03/01 04:00:33;;;;;;;183.13;19.83;;;;;;;-141.50;100.00;63355.56;4995517;28;20042;-79
2021/03/01 04:03:05;;;;;;;62.20;19.08;;;;;;;-141.50;100.00;63355.56;4994496;28;20050;-79
2021/03/01 04:05:32;;;;;;;111.43;19.45;;;;;;;-141.50;100.00;63355.56;4977467;28;20053;-78
2021/03/01 04:07:59;;;;;;;132.45;20.83;;;;;;;-141.50;100.00;63355.56;4995158;28;20050;-78
2021/03/01 04:10:30;;;;;;;107.60;19.80;;;;;;;-141.50;100.00;63355.56;4994009;28;20516;-78
2021/03/01 04:12:58;;;;;;;61.28;19.38;;;;;;;-141.50;100.00;63355.56;4994635;28;20137;-78
2021/03/01 04:15:25;;;;;;;98.00;20.42;;;;;;;-141.50;100.00;63355.56;4994198;28;20129;-77
2021/03/01 04:17:52;;;;;;;87.18;20.40;;;;;;;-141.50;100.00;63355.56;4991024;28;20087;-78
2021/03/01 04:20:23;;;;;;;60.05;18.77;;;;;;;-141.50;100.00;63355.56;4991201;28;20713;-79
2021/03/01 04:22:52;;;;;;;74.07;18.75;;;;;;;-141.50;100.00;63355.56;4975946;28;20046;-80
2021/03/01 04:25:22;;;;;;;69.22;19.02;;;;;;;-141.50;100.00;63355.56;5018306;23;20092;-78
2021/03/01 04:27:49;;;;;;;65.30;19.02;;;;;;;-141.50;100.00;63355.56;5015136;28;20136;-79
2021/03/01 04:30:16;;;;;;;137.32;18.77;;;;;;;-141.50;100.00;63355.56;4997782;28;20065;-78
2021/03/01 04:32:45;;;;;;;84.88;17.70;;;;;;;-141.50;100.00;63355.56;5004316;28;20176;-79
2021/03/01 04:35:14;;;;;;;61.72;17.48;;;;;;;-141.50;100.00;63355.56;4985391;28;20167;-78
2021/03/01 04:37:40;;;;;;;46.45;16.92;;;;;;;-141.50;100.00;63355.56;4998068;28;20107;-79
2021/03/01 04:40:08;;;;;;;52.92;16.25;;;;;;;-141.50;100.00;63355.56;4998649;28;20237;-79
2021/03/01 04:42:36;;;;;;;91.00;17.45;;;;;;;-141.50;100.00;63355.56;5017307;28;20512;-80
2021/03/01 04:45:04;;;;;;;47.85;16.10;;;;;;;-141.50;100.00;63355.56;4999881;28;20580;-79
2021/03/01 04:47:32;;;;;;;36.20;15.65;;;;;;;-141.50;100.00;63355.56;5016304;28;20543;-79
2021/03/01 04:50:00;;;;;;;62.35;16.50;;;;;;;-141.50;100.00;63355.56;4999384;28;20420;-80
2021/03/01 04:52:31;;;;;;;31.48;15.55;;;;;;;-141.50;100.00;63355.56;5017337;28;20045;-79
2021/03/01 04:54:59;;;;;;;33.85;15.95;;;;;;;-141.50;100.00;63355.56;5015348;28;20405;-79
2021/03/01 04:57:26;;;;;;;37.95;16.70;;;;;;;-141.50;100.00;63355.56;4999022;28;20057;-78
2021/03/01 04:59:53;;;;;;;32.80;15.50;;;;;;;-141.50;100.00;63355.56;4979024;28;20057;-77
2021/03/01 05:02:20;;;;;;;29.40;14.35;;;;;;;-141.50;100.00;63355.56;4997142;28;20046;-79
2021/03/01 05:04:47;;;;;;;28.65;14.20;;;;;;;-141.50;100.00;63355.56;4980348;28;20077;-79
2021/03/01 05:07:13;;;;;;;32.38;14.88;;;;;;;-141.50;100.00;63355.56;4998120;28;20137;-78
2021/03/01 05:09:40;;;;;;;29.48;14.52;;;;;;;-141.50;100.00;63355.56;4995306;28;20057;-77
2021/03/01 05:12:07;;;;;;;29.20;15.30;;;;;;;-141.50;100.00;63355.56;4978018;28;20077;-78
2021/03/01 05:14:33;;;;;;;34.13;15.20;;;;;;;-141.50;100.00;63355.56;4995270;28;20046;-76
2021/03/01 05:17:03;;;;;;;34.80;15.48;;;;;;;-141.50;100.00;63355.56;4994329;28;20632;-79
2021/03/01 05:19:31;;;;;;;34.90;15.25;;;;;;;-141.50;100.00;63355.56;4994706;28;20428;-79
2021/03/01 05:21:59;;;;;;;36.78;16.30;;;;;;;-141.50;100.00;63355.56;4995958;28;20503;-79
2021/03/01 05:24:25;;;;;;;36.22;15.43;;;;;;;-141.50;100.00;63355.56;4978346;28;20470;-79
2021/03/01 05:26:52;;;;;;;35.30;15.80;;;;;;;-141.50;100.00;63355.56;4945250;28;20054;-79
2021/03/01 05:29:19;;;;;;;41.30;16.80;;;;;;;-141.50;100.00;63355.56;5000424;28;20440;-77
2021/03/01 05:31:46;;;;;;;44.72;18.40;;;;;;;-141.50;100.00;63355.56;5004957;28;20034;-79
2021/03/01 05:34:12;;;;;;;41.20;18.00;;;;;;;-141.50;100.00;63355.56;4978837;28;20093;-77
2021/03/01 05:36:42;;;;;;;40.47;18.70;;;;;;;-141.50;100.00;63355.56;4995884;28;20429;-77
2021/03/01 05:39:08;;;;;;;38.90;17.63;;;;;;;-141.50;100.00;63355.56;4996938;28;20034;-78
2021/03/01 05:41:45;;;;;;;42.58;18.15;;;;;;;-141.50;100.00;63355.56;4999197;28;20130;-78
2021/03/01 05:44:13;;;;;;;37.25;17.13;;;;;;;-141.50;100.00;63355.56;4983540;28;20042;-78
2021/03/01 05:46:42;;;;;;;41.67;18.05;;;;;;;-141.50;100.00;63355.56;4967649;28;20109;-78
2021/03/01 05:49:09;;;;;;;39.13;17.33;;;;;;;-141.50;100.00;63355.56;4983545;28;20064;-79
2021/03/01 05:51:37;;;;;;;38.83;17.25;;;;;;;-141.50;100.00;63355.56;5001042;28;20056;-77
2021/03/01 05:54:05;;;;;;;39.97;17.10;;;;;;;-141.50;100.00;63355.56;5002989;28;20041;-76
2021/03/01 05:56:33;;;;;;;44.05;19.00;;;;;;;-141.50;100.00;63355.56;4992773;28;20237;-77
2021/03/01 05:58:59;;;;;;;44.03;17.58;;;;;;;-141.50;100.00;63355.56;5004279;28;20069;-77
2021/03/01 06:01:26;;;;;;;37.88;17.20;;;;;;;-141.50;100.00;63355.56;5006184;28;20060;-76
2021/03/01 06:03:53;;;;;;;37.15;16.98;;;;;;;-141.50;100.00;63355.56;4994101;28;20293;-75
2021/03/01 06:06:19;;;;;;;52.03;20.85;;;;;;;-141.50;100.00;63355.56;4999774;28;20145;-77
2021/03/01 06:08:45;;;;;;;52.20;19.15;;;;;;;-141.50;100.00;63355.56;4983162;28;20704;-77
2021/03/01 06:11:11;;;;;;;44.22;18.80;;;;;;;-141.50;100.00;63355.56;5017614;28;20050;-77
2021/03/01 06:13:38;;;;;;;41.72;18.00;;;;;;;-141.50;100.00;63355.56;4996915;28;20057;-77
2021/03/01 06:16:05;;;;;;;37.90;17.48;;;;;;;-141.50;100.00;63355.56;5000588;28;20505;-77
2021/03/01 06:18:32;;;;;;;40.83;17.40;;;;;;;-141.50;100.00;63355.56;5003061;28;20068;-76
2021/03/01 06:21:12;;;;;;;52.70;19.58;;;;;;;-141.50;100.00;63355.56;5020814;28;20442;-78
2021/03/01 06:23:41;;;;;;;50.97;20.95;;;;;;;-141.50;100.00;63355.56;4996824;28;20434;-72
2021/03/01 06:26:30;;;;;;;49.25;20.30;;;;;;;-141.50;100.00;63355.56;4978637;28;20488;-72
2021/03/01 06:29:08;;;;;;;58.53;21.98;;;;;;;-141.50;100.00;63355.56;4997266;28;20140;-79
2021/03/01 06:31:45;;;;;;;56.13;22.45;;;;;;;-141.50;100.00;63355.56;4987460;28;20098;-77
2021/03/01 06:34:27;;;;;;;52.60;21.85;;;;;;;-141.50;100.00;63355.56;4995534;28;20047;-78
2021/03/01 06:36:56;;;;;;;54.78;22.05;;;;;;;-141.50;100.00;63355.56;4996734;28;20512;-77
2021/03/01 06:39:46;;;;;;;59.83;23.50;;;;;;;-141.50;100.00;63355.56;5005985;28;20398;-79
2021/03/01 06:42:15;;;;;;;63.67;23.33;;;;;;;-141.50;100.00;63355.56;5015478;28;20046;-79
2021/03/01 06:44:46;;;;;;;61.55;23.25;;;;;;;-141.50;100.00;63355.56;4999919;28;20060;-78
2021/03/01 06:47:12;;;;;;;69.43;25.17;;;;;;;-141.50;100.00;63355.56;4998405;28;20045;-79
2021/03/01 06:49:41;;;;;;;70.57;25.52;;;;;;;-141.50;100.00;63355.56;5000347;28;20140;-78
2021/03/01 06:52:08;;;;;;;82.43;25.77;;;;;;;-141.50;100.00;63355.56;5015928;28;20046;-78
2021/03/01 06:54:35;;;;;;;71.18;25.35;;;;;;;-141.50;100.00;63355.56;4999834;28;20038;-79
2021/03/01 06:57:02;;;;;;;70.03;26.00;;;;;;;-141.50;100.00;63355.56;5002310;28;20061;-79
2021/03/01 06:59:29;;;;;;;74.43;25.75;;;;;;;-141.50;100.00;63355.56;4992962;28;20105;-79
2021/03/01 07:01:59;;;;;;;76.47;27.80;;;;;;;-141.50;100.00;63355.56;5008268;28;20050;-79
2021/03/01 07:04:30;;;;;;;72.82;28.98;;;;;;;-141.50;100.00;63355.56;4965154;28;20510;-78
2021/03/01 07:06:58;;;;;;;69.97;27.33;;;;;;;-141.50;100.00;63355.56;4980742;28;20137;-77
2021/03/01 07:09:27;;;;;;;68.05;26.73;;;;;;;-141.50;100.00;63355.56;5007907;28;20296;-78
2021/03/01 07:11:54;;;;;;;76.38;28.88;;;;;;;-141.50;100.00;63355.56;4985752;28;20089;-79
2021/03/01 07:14:25;;;;;;;76.85;28.35;;;;;;;-141.50;100.00;63355.56;4997665;28;20553;-77
2021/03/01 07:16:57;;;;;;;84.05;31.08;;;;;;;-141.50;100.00;63355.56;4979912;28;20042;-79
2021/03/01 07:19:33;;;;;;;62.78;26.10;;;;;;;-141.50;100.00;63355.56;4979604;28;20046;-76
2021/03/01 07:22:02;;;;;;;62.72;26.80;;;;;;;-141.50;100.00;63355.56;4981827;28;20050;-79
2021/03/01 07:24:30;;;;;;;72.85;28.92;;;;;;;-141.50;100.00;63355.56;4998288;28;20038;-76
2021/03/01 07:27:04;;;;;;;74.15;28.25;;;;;;;-141.50;100.00;63355.56;4999042;28;20045;-78
2021/03/01 07:29:42;;;;;;;68.97;27.88;;;;;;;-141.50;100.00;63355.56;5004864;28;20076;-78
2021/03/01 07:32:12;;;;;;;61.95;24.80;;;;;;;-141.50;100.00;63355.56;4981081;28;20117;-78
2021/03/01 07:34:40;;;;;;;53.05;22.73;;;;;;;-141.50;100.00;63355.56;4996353;28;20042;-78
2021/03/01 07:37:06;;;;;;;44.10;19.02;;;;;;;-141.50;100.00;63355.56;4981941;28;20054;-78
2021/03/01 07:39:33;;;;;;;42.00;18.30;;;;;;;-141.50;100.00;63355.56;4980436;28;20513;-78
2021/03/01 07:42:04;;;;;;;36.20;18.17;;;;;;;-141.50;100.00;63355.56;4995719;28;20101;-77
2021/03/01 07:44:35;;;;;;;37.35;18.05;;;;;;;-141.50;100.00;63355.56;4981633;28;20054;-78
2021/03/01 07:47:04;;;;;;;41.00;19.60;;;;;;;-141.50;100.00;63355.56;4997442;28;20078;-78
2021/03/01 07:49:41;;;;;;;48.10;20.27;;;;;;;-141.50;100.00;63355.56;4978023;28;20046;-77
2021/03/01 07:52:20;;;;;;;53.10;23.85;;;;;;;-141.50;100.00;63355.56;4977904;28;20308;-79
2021/03/01 07:54:56;;;;;;;66.85;30.42;;;;;;;-141.50;100.00;63355.56;4994467;28;20235;-78
2021/03/01 07:57:28;;;;;;;72.30;31.48;;;;;;;-141.50;100.00;63355.56;4995165;28;20038;-79
2021/03/01 08:00:00;;;;;;;70.03;32.25;;;;;;;-141.50;100.00;63355.56;4967660;28;20497;-77
2021/03/01 08:02:34;;;;;;;72.38;33.60;;;;;;;-141.50;100.00;63355.56;4996992;28;20494;-77
2021/03/01 08:05:21;;;;;;;77.45;33.63;;;;;;;-141.50;100.00;63355.56;4997018;28;20038;-79
2021/03/01 08:07:47;;;;;;;57.40;25.58;;;;;;;-141.50;100.00;63355.56;4962199;28;20058;-77
2021/03/01 08:10:26;;;;;;;71.78;33.28;;;;;;;-141.50;100.00;63355.56;4978219;28;20100;-78
2021/03/01 08:12:56;;;;;;;70.28;32.33;;;;;;;-141.50;100.00;63355.56;4992407;28;20042;-78
2021/03/01 08:15:25;;;;;;;74.97;34.45;;;;;;;-141.50;100.00;63355.56;4999424;28;20062;-78
2021/03/01 08:17:52;;;;;;;71.03;33.10;;;;;;;-141.50;100.00;63355.56;4998463;28;20054;-77
2021/03/01 08:20:22;;;;;;;73.03;32.30;;;;;;;-141.50;100.00;63355.56;4978091;28;20096;-78
2021/03/01 08:23:04;;;;;;;71.80;32.40;;;;;;;-141.50;100.00;63355.56;4991924;28;20046;-77
2021/03/01 08:25:58;;;;;;;83.00;33.72;;;;;;;-141.50;100.00;63355.56;4991168;28;20049;-77
2021/03/01 08:28:24;;;;;;;76.90;33.72;;;;;;;-141.50;100.00;63355.56;4973177;28;20061;-77
2021/03/01 08:30:54;;;;;;;80.38;34.78;;;;;;;-141.50;100.00;63355.56;4995354;28;20109;-77
2021/03/01 08:33:26;;;;;;;76.78;35.55;;;;;;;-141.50;100.00;63355.56;4976960;28;20510;-76
2021/03/01 08:36:12;;;;;;;69.13;32.15;;;;;;;-141.50;100.00;63355.56;4975547;28;20046;-77
2021/03/01 08:38:42;;;;;;;67.53;31.90;;;;;;;-141.50;100.00;63355.56;4981700;28;20058;-76
2021/03/01 08:41:11;;;;;;;76.45;34.53;;;;;;;-141.50;100.00;63355.56;4992053;28;20046;-77
2021/03/01 08:43:41;;;;;;;76.05;34.72;;;;;;;-141.50;100.00;63355.56;4994030;28;20478;-77
2021/03/01 08:46:17;;;;;;;79.43;35.20;;;;;;;-141.50;100.00;63355.56;4991865;28;20053;-78
2021/03/01 08:48:45;;;;;;;83.53;35.20;;;;;;;-141.50;100.00;63355.56;4992837;28;20047;-77
2021/03/01 08:51:12;;;;;;;84.93;35.90;;;;;;;-141.50;100.00;63355.56;4974668;28;20046;-77
2021/03/01 08:53:39;;;;;;;86.85;35.83;;;;;;;-141.50;100.00;63355.56;4993085;28;20453;-78
2021/03/01 08:56:20;;;;;;;87.88;36.55;;;;;;;-141.50;100.00;63355.56;4974624;28;20410;-76
2021/03/01 08:58:46;;;;;;;87.50;36.25;;;;;;;-141.50;100.00;63355.56;4992315;28;20498;-78
2021/03/01 09:01:14;;;;;;;81.57;35.63;;;;;;;-141.50;100.00;63355.56;4992021;28;20053;-78
2021/03/01 09:03:44;;;;;;;85.47;37.00;;;;;;;-141.50;100.00;63355.56;4974578;28;20489;-78
2021/03/01 09:06:12;;;;;;;86.35;37.80;;;;;;;-141.50;100.00;63355.56;4993822;28;20281;-77
2021/03/01 09:08:40;;;;;;;83.13;36.53;;;;;;;-141.50;100.00;63355.56;5011479;28;20049;-78
2021/03/01 09:11:23;;;;;;;72.05;33.90;;;;;;;-141.50;100.00;63355.56;4995029;28;20149;-77
2021/03/01 09:14:00;;;;;;;73.60;33.20;;;;;;;-141.50;100.00;63355.56;5012703;28;20046;-77
2021/03/01 09:16:28;;;;;;;75.53;34.10;;;;;;;-141.50;100.00;63355.56;4997546;28;20046;-77
2021/03/01 09:19:05;;;;;;;66.35;32.42;;;;;;;-141.50;100.00;63355.56;4997381;28;20042;-78
2021/03/01 09:21:34;;;;;;;73.75;34.90;;;;;;;-141.50;100.00;63355.56;5015679;28;20434;-77
2021/03/01 09:24:01;;;;;;;75.10;36.50;;;;;;;-141.50;100.00;63355.56;4996993;28;20104;-78
2021/03/01 09:26:42;;;;;;;78.03;38.08;;;;;;;-141.50;100.00;63355.56;4996164;28;20041;-77
2021/03/01 09:29:11;;;;;;;83.10;38.35;;;;;;;-141.50;100.00;63355.56;4977273;28;20137;-79
2021/03/01 09:31:48;;;;;;;72.93;35.05;;;;;;;-141.50;100.00;63355.56;4994587;28;20122;-80
2021/03/01 09:34:16;;;;;;;70.35;33.35;;;;;;;-141.50;100.00;63355.56;4994843;28;20050;-77
2021/03/01 09:36:57;;;;;;;66.72;32.92;;;;;;;-141.50;100.00;63355.56;4977324;28;20046;-78
2021/03/01 09:39:25;;;;;;;72.57;37.13;;;;;;;-141.50;100.00;63355.56;4977600;28;20077;-78
2021/03/01 09:41:54;;;;;;;72.30;37.63;;;;;;;-141.50;100.00;63355.56;4996230;28;20201;-78
2021/03/01 09:44:28;;;;;;;69.13;34.47;;;;;;;-141.50;100.00;63355.56;4977895;28;20043;-77
2021/03/01 09:46:59;;;;;;;76.65;37.22;;;;;;;-141.50;100.00;63355.56;4995171;28;20604;-76
2021/03/01 09:49:30;;;;;;;76.38;38.90;;;;;;;-141.50;100.00;63355.56;4978041;28;20049;-78
2021/03/01 09:51:57;;;;;;;74.75;37.05;;;;;;;-141.50;100.00;63355.56;4984378;28;20054;-76
2021/03/01 09:54:24;;;;;;;66.82;34.08;;;;;;;-141.50;100.00;63355.56;5002630;28;20553;-76
2021/03/01 09:56:54;;;;;;;64.80;32.53;;;;;;;-141.50;100.00;63355.56;4985739;28;20050;-77
2021/03/01 09:59:32;;;;;;;63.72;31.38;;;;;;;-141.50;100.00;63355.56;5012914;28;20045;-76
2021/03/01 10:02:14;;;;;;;60.63;31.10;;;;;;;-141.50;100.00;63355.56;5014768;28;20048;-76
2021/03/01 10:04:43;;;;;;;58.03;30.67;;;;;;;-141.50;100.00;63355.56;5014015;28;20041;-77
2021/03/01 10:07:27;;;;;;;58.53;30.25;;;;;;;-141.50;100.00;63355.56;5016488;28;20565;-78
2021/03/01 10:09:55;;;;;;;61.78;32.17;;;;;;;-141.50;100.00;63355.56;5013295;28;20049;-80
2021/03/01 10:12:23;;;;;;;62.08;32.17;;;;;;;-141.50;100.00;63355.56;4996479;28;20072;-78
2021/03/01 10:14:59;;;;;;;62.55;31.80;;;;;;;-141.50;100.00;63355.56;4996300;28;20042;-79
2021/03/01 10:17:29;;;;;;;56.53;30.02;;;;;;;-141.50;100.00;63355.56;5015957;28;20060;-78
2021/03/01 10:20:10;;;;;;;59.53;31.42;;;;;;;-141.50;100.00;63355.56;5025042;28;20052;-78
2021/03/01 10:22:59;;;;;;;59.97;31.60;;;;;;;-141.50;100.00;63355.56;5017593;28;20050;-77
2021/03/01 10:25:41;;;;;;;59.92;32.42;;;;;;;-141.50;100.00;63355.56;5028682;23;20117;-78
2021/03/01 10:28:29;;;;;;;61.20;32.05;;;;;;;-141.50;100.00;63355.56;5032673;28;20056;-78
2021/03/01 10:31:10;;;;;;;61.95;31.98;;;;;;;-141.50;100.00;63355.56;5045967;28;20021;-79
2021/03/01 10:33:58;;;;;;;64.95;34.83;;;;;;;-141.50;100.00;63355.56;5051209;28;20065;-78
2021/03/01 10:36:27;;;;;;;66.97;34.72;;;;;;;-141.50;100.00;63355.56;5010259;28;20042;-77
2021/03/01 10:38:59;;;;;;;69.25;36.08;;;;;;;-141.50;100.00;63355.56;5027522;28;20042;-78
2021/03/01 10:41:29;;;;;;;70.68;36.08;;;;;;;-141.50;100.00;63355.56;5030313;28;20070;-77
2021/03/01 10:43:58;;;;;;;69.32;36.78;;;;;;;-141.50;100.00;63355.56;5021029;28;20049;-78
2021/03/01 10:46:38;;;;;;;72.63;37.63;;;;;;;-141.50;100.00;63355.56;5020090;28;20115;-78
2021/03/01 10:49:28;;;;;;;73.80;37.00;;;;;;;-141.50;100.00;63355.56;5021994;28;20050;-77
2021/03/01 10:51:56;;;;;;;69.68;36.08;;;;;;;-141.50;100.00;63355.56;5024412;28;20050;-78
2021/03/01 10:54:24;;;;;;;67.82;36.85;;;;;;;-141.50;100.00;63355.56;5007672;28;20041;-77
2021/03/01 10:56:50;;;;;;;68.72;36.20;;;;;;;-141.50;100.00;63355.56;5023764;28;20042;-77
2021/03/01 10:59:16;;;;;;;69.40;37.50;;;;;;;-141.50;100.00;63355.56;5014320;28;20045;-78
2021/03/01 11:01:44;;;;;;;67.60;36.42;;;;;;;-141.50;100.00;63355.56;4995534;28;20493;-78
2021/03/01 11:04:13;;;;;;;64.28;36.08;;;;;;;-141.50;100.00;63355.56;4976958;28;20122;-78
2021/03/01 11:06:39;;;;;;;62.20;34.65;;;;;;;-141.50;100.00;63355.56;4993469;28;20448;-79